createdAt,value
2022-12-04T00:01:10.321Z,6.28
2022-12-04T00:03:36.992Z,6.36
2022-12-04T00:06:07.310Z,6.34
2022-12-04T00:08:33.845Z,6.31
2022-12-04T00:11:00.355Z,6.30
2022-12-04T00:13:27.068Z,6.25
2022-12-04T00:15:53.904Z,6.23
2022-12-04T00:18:20.401Z,6.24
2022-12-04T00:20:46.892Z,6.23
2022-12-04T00:23:13.841Z,6.22
2022-12-04T00:25:41.471Z,6.12
2022-12-04T00:28:08.129Z,6.09
2022-12-04T00:30:35.089Z,6.04
2022-12-04T00:33:01.534Z,5.93
2022-12-04T00:35:28.458Z,5.78
2022-12-04T00:37:54.935Z,5.65
2022-12-04T00:40:21.414Z,5.57
2022-12-04T00:42:47.926Z,5.50
2022-12-04T00:45:14.583Z,5.46
2022-12-04T00:47:41.284Z,5.37
2022-12-04T00:50:08.084Z,5.38
2022-12-04T00:52:34.567Z,5.32
2022-12-04T00:55:01.022Z,5.32
2022-12-04T00:57:27.505Z,5.39
2022-12-04T00:59:54.207Z,5.40
2022-12-04T01:02:20.897Z,5.43
2022-12-04T01:04:47.448Z,5.41
2022-12-04T01:07:14.213Z,5.38
2022-12-04T01:09:40.625Z,5.34
2022-12-04T01:12:07.164Z,5.33
2022-12-04T01:14:33.621Z,5.29
2022-12-04T01:17:00.189Z,5.20
2022-12-04T01:19:26.630Z,5.12
2022-12-04T01:21:53.112Z,5.14
2022-12-04T01:24:19.545Z,5.09
2022-12-04T01:26:46.015Z,5.01
2022-12-04T01:32:46.747Z,4.89
2022-12-04T01:38:41.786Z,4.80
2022-12-04T01:41:08.450Z,4.79
2022-12-04T01:43:35.185Z,4.78
2022-12-04T01:49:38.656Z,4.88
2022-12-04T01:52:05.935Z,4.91
2022-12-04T01:54:33.966Z,4.97
2022-12-04T01:57:19.517Z,4.95
2022-12-04T01:59:53.271Z,4.90
2022-12-04T02:02:21.587Z,4.84
2022-12-04T02:04:48.124Z,4.74
2022-12-04T02:07:14.567Z,4.68
2022-12-04T02:09:41.005Z,4.62
2022-12-04T02:12:24.299Z,4.57
2022-12-04T02:15:09.483Z,4.49
2022-12-04T02:17:40.284Z,4.43
2022-12-04T02:20:09.879Z,4.40
2022-12-04T02:22:55.845Z,4.34
2022-12-04T02:25:25.419Z,4.26
2022-12-04T02:28:24.582Z,4.20
2022-12-04T02:30:56.140Z,4.16
2022-12-04T02:33:23.771Z,4.12
2022-12-04T02:35:55.512Z,4.08
2022-12-04T02:38:57.508Z,4.07
2022-12-04T02:41:25.634Z,4.07
2022-12-04T02:43:52.598Z,4.06
2022-12-04T02:46:24.670Z,4.00
2022-12-04T02:48:52.168Z,3.98
2022-12-04T02:51:19.377Z,3.94
2022-12-04T02:53:47.803Z,3.89
2022-12-04T02:56:15.746Z,3.74
2022-12-04T02:58:47.062Z,3.66
2022-12-04T03:01:19.704Z,3.62
2022-12-04T03:03:48.873Z,3.64
2022-12-04T03:06:15.355Z,3.65
2022-12-04T03:08:43.172Z,3.66
2022-12-04T03:11:09.598Z,3.68
2022-12-04T03:13:44.773Z,3.73
2022-12-04T03:16:15.965Z,3.70
2022-12-04T03:18:43.456Z,3.69
2022-12-04T03:21:14.768Z,3.67
2022-12-04T03:23:43.112Z,3.65
2022-12-04T03:26:12.548Z,3.69
2022-12-04T03:28:51.571Z,3.72
2022-12-04T03:31:19.346Z,3.71
2022-12-04T03:33:46.543Z,3.70
2022-12-04T03:36:24.599Z,3.84
2022-12-04T03:42:19.953Z,3.93
2022-12-04T03:44:46.964Z,3.88
2022-12-04T03:47:16.408Z,3.83
2022-12-04T03:49:51.737Z,3.82
2022-12-04T03:52:18.252Z,3.81
2022-12-04T03:54:49.535Z,3.75
2022-12-04T03:57:17.708Z,3.66
2022-12-04T03:59:45.735Z,3.59
2022-12-04T04:02:13.427Z,3.55
2022-12-04T04:04:39.933Z,3.51
2022-12-04T04:07:11.572Z,3.48
2022-12-04T04:09:39.698Z,3.47
2022-12-04T04:12:10.705Z,3.48
2022-12-04T04:15:08.433Z,3.48
2022-12-04T04:17:53.584Z,3.45
2022-12-04T04:20:39.710Z,3.42
2022-12-04T04:23:24.949Z,3.40
2022-12-04T04:25:51.657Z,3.36
2022-12-04T04:28:33.502Z,3.29
2022-12-04T04:31:05.875Z,3.23
2022-12-04T04:33:32.891Z,3.20
2022-12-04T04:36:19.609Z,2.45
2022-12-04T04:38:47.591Z,3.01
2022-12-04T04:41:22.088Z,2.93
2022-12-04T04:43:52.253Z,2.87
2022-12-04T04:46:23.723Z,2.81
2022-12-04T04:48:53.913Z,2.77
2022-12-04T04:51:20.470Z,2.76
2022-12-04T04:53:47.737Z,2.67
2022-12-04T04:56:14.177Z,2.61
2022-12-04T04:58:41.315Z,2.54
2022-12-04T05:01:08.695Z,2.48
2022-12-04T05:03:35.180Z,2.46
2022-12-04T05:06:01.682Z,2.36
2022-12-04T05:08:28.169Z,2.30
2022-12-04T05:10:54.642Z,2.26
2022-12-04T05:13:21.060Z,2.25
2022-12-04T05:16:06.679Z,2.23
2022-12-04T05:18:33.647Z,2.11
2022-12-04T05:21:00.132Z,2.06
2022-12-04T05:23:26.671Z,1.95
2022-12-04T05:25:59.010Z,1.93
2022-12-04T05:28:25.470Z,1.93
2022-12-04T05:30:58.591Z,1.95
2022-12-04T05:36:53.441Z,2.01
2022-12-04T05:39:19.912Z,2.00
2022-12-04T05:41:46.791Z,1.98
2022-12-04T05:44:13.274Z,1.98
2022-12-04T05:46:39.736Z,1.99
2022-12-04T05:49:06.224Z,1.99
2022-12-04T05:51:32.706Z,1.98
2022-12-04T05:53:59.230Z,1.99
2022-12-04T05:56:25.641Z,1.95
2022-12-04T05:58:52.226Z,1.90
2022-12-04T06:01:19.812Z,1.91
2022-12-04T06:03:46.917Z,1.85
2022-12-04T06:06:19.485Z,1.80
2022-12-04T06:08:48.247Z,1.77
2022-12-04T06:11:15.428Z,1.77
2022-12-04T06:13:42.348Z,1.75
2022-12-04T06:16:25.304Z,1.72
2022-12-04T06:18:55.946Z,1.68
2022-12-04T06:21:22.680Z,1.72
2022-12-04T06:23:49.133Z,1.81
2022-12-04T06:26:15.619Z,1.80
2022-12-04T06:28:42.063Z,1.81
2022-12-04T06:31:09.255Z,1.88
2022-12-04T06:36:57.433Z,2.03
2022-12-04T06:39:24.023Z,2.07
2022-12-04T06:41:50.523Z,2.12
2022-12-04T06:44:17.009Z,2.26
2022-12-04T06:46:46.878Z,2.40
2022-12-04T06:49:13.828Z,2.52
2022-12-04T06:51:41.067Z,2.66
2022-12-04T06:54:07.632Z,2.79
2022-12-04T06:56:34.145Z,2.83
2022-12-04T06:59:01.634Z,2.78
2022-12-04T07:01:29.018Z,2.74
2022-12-04T07:03:55.772Z,2.75
2022-12-04T07:06:23.148Z,2.75
2022-12-04T07:08:50.957Z,2.78
2022-12-04T07:11:17.480Z,2.83
2022-12-04T07:13:43.971Z,2.90
2022-12-04T07:16:11.490Z,2.94
2022-12-04T07:18:38.026Z,3.00
2022-12-04T07:21:05.228Z,3.06
2022-12-04T07:26:53.353Z,3.30
2022-12-04T07:29:19.778Z,3.41
2022-12-04T07:31:46.403Z,3.50
2022-12-04T07:34:14.957Z,3.68
2022-12-04T07:36:41.368Z,4.00
2022-12-04T07:39:07.863Z,4.25
2022-12-04T07:41:34.694Z,4.49
2022-12-04T07:44:01.124Z,4.66
2022-12-04T07:46:27.843Z,4.76
2022-12-04T07:48:57.745Z,4.83
2022-12-04T07:51:25.002Z,4.89
2022-12-04T07:53:51.669Z,5.04
2022-12-04T07:56:18.099Z,5.30
2022-12-04T07:58:44.655Z,5.43
2022-12-04T08:01:15.116Z,5.50
2022-12-04T08:03:47.147Z,5.58
2022-12-04T08:06:15.007Z,5.53
2022-12-04T08:08:41.474Z,5.55
2022-12-04T08:11:08.955Z,5.61
2022-12-04T08:13:35.499Z,5.73
2022-12-04T08:16:02.670Z,5.81
2022-12-04T08:18:29.161Z,5.92
2022-12-04T08:21:02.010Z,6.00
2022-12-04T08:23:28.479Z,6.42
2022-12-04T08:25:55.002Z,7.13
2022-12-04T08:28:21.466Z,7.92
2022-12-04T08:30:48.004Z,8.76
2022-12-04T08:33:14.511Z,9.63
2022-12-04T08:35:40.986Z,10.46
2022-12-04T08:38:07.698Z,11.31
2022-12-04T08:40:34.172Z,11.98
2022-12-04T08:43:00.647Z,12.69
2022-12-04T08:45:27.263Z,13.19
2022-12-04T08:47:53.746Z,13.79
2022-12-04T08:50:20.212Z,14.29
2022-12-04T08:52:46.676Z,14.75
2022-12-04T08:55:13.102Z,15.23
2022-12-04T08:57:39.608Z,15.67
2022-12-04T09:00:06.524Z,16.00
2022-12-04T09:02:32.994Z,16.37
2022-12-04T09:05:25.490Z,16.65
2022-12-04T09:07:51.990Z,16.90
2022-12-04T09:10:18.720Z,16.99
2022-12-04T09:12:45.249Z,17.02
2022-12-04T09:15:11.703Z,16.66
2022-12-04T09:17:38.326Z,16.20
2022-12-04T09:20:05.489Z,15.72
2022-12-04T09:22:57.752Z,15.30
2022-12-04T09:25:20.028Z,14.77
2022-12-04T09:27:46.523Z,14.32
2022-12-04T09:30:13.160Z,13.92
2022-12-04T09:32:39.723Z,13.54
2022-12-04T09:35:06.397Z,13.15
2022-12-04T09:37:33.045Z,12.80
2022-12-04T09:39:59.528Z,12.53
2022-12-04T09:42:38.283Z,12.32
2022-12-04T09:45:09.475Z,12.13
2022-12-04T09:47:59.215Z,11.98
2022-12-04T09:50:36.960Z,11.79
2022-12-04T09:53:09.046Z,11.60
2022-12-04T09:55:35.495Z,11.43
2022-12-04T09:58:02.741Z,11.35
2022-12-04T10:00:29.692Z,11.25
2022-12-04T10:02:57.713Z,11.18
2022-12-04T10:05:44.559Z,11.14
2022-12-04T10:08:14.767Z,11.09
2022-12-04T10:10:42.478Z,11.01
2022-12-04T10:13:25.710Z,10.99
2022-12-04T10:16:00.993Z,10.83
2022-12-04T10:18:36.698Z,10.75
2022-12-04T10:21:26.553Z,10.72
2022-12-04T10:24:05.379Z,10.68
2022-12-04T10:26:36.190Z,10.63
2022-12-04T10:29:03.253Z,10.59
2022-12-04T10:31:29.952Z,10.57
2022-12-04T10:34:06.870Z,10.57
2022-12-04T10:36:33.870Z,10.60
2022-12-04T10:39:01.389Z,10.54
2022-12-04T10:41:29.474Z,10.45
2022-12-04T10:43:55.994Z,10.46
2022-12-04T10:46:23.685Z,10.49
2022-12-04T10:48:51.390Z,10.49
2022-12-04T10:51:18.320Z,10.44
2022-12-04T10:53:45.188Z,10.38
2022-12-04T10:56:14.765Z,10.34
2022-12-04T10:58:41.422Z,10.32
2022-12-04T11:01:12.442Z,10.28
2022-12-04T11:03:39.273Z,10.24
2022-12-04T11:06:06.394Z,10.22
2022-12-04T11:08:32.911Z,10.23
2022-12-04T11:11:00.466Z,10.28
2022-12-04T11:13:26.983Z,10.29
2022-12-04T11:15:54.917Z,10.29
2022-12-04T11:18:21.713Z,10.21
2022-12-04T11:20:51.718Z,10.17
2022-12-04T11:23:18.212Z,10.12
2022-12-04T11:25:48.864Z,10.04
2022-12-04T11:28:43.084Z,9.99
2022-12-04T11:31:07.593Z,9.98
2022-12-04T11:33:41.165Z,9.95
2022-12-04T11:36:15.987Z,9.84
2022-12-04T11:38:43.040Z,9.79
2022-12-04T11:41:14.259Z,9.70
2022-12-04T11:43:47.913Z,9.67
2022-12-04T11:46:24.623Z,9.65
2022-12-04T11:48:51.245Z,9.62
2022-12-04T11:51:20.787Z,9.63
2022-12-04T11:53:47.665Z,9.65
2022-12-04T11:56:18.941Z,9.70
2022-12-04T12:02:25.669Z,9.82
2022-12-04T12:04:59.165Z,9.89
2022-12-04T12:07:30.477Z,9.92
2022-12-04T12:10:08.018Z,9.94
2022-12-04T12:12:51.085Z,9.91
2022-12-04T12:15:24.602Z,9.85
2022-12-04T12:18:11.286Z,9.80
2022-12-04T12:21:01.092Z,9.76
2022-12-04T12:23:36.988Z,9.72
2022-12-04T12:26:13.613Z,9.68
2022-12-04T12:28:43.171Z,9.64
2022-12-04T12:31:30.463Z,9.55
2022-12-04T12:33:58.820Z,9.51
2022-12-04T12:36:25.443Z,9.49
2022-12-04T12:39:15.315Z,9.47
2022-12-04T12:41:43.382Z,9.44
2022-12-04T12:44:30.905Z,9.39
2022-12-04T12:46:59.476Z,9.29
2022-12-04T12:49:35.058Z,9.30
2022-12-04T12:52:02.926Z,9.21
2022-12-04T12:54:48.535Z,9.16
2022-12-04T12:57:16.331Z,9.18
2022-12-04T12:59:45.844Z,9.11
2022-12-04T13:02:12.351Z,9.05
2022-12-04T13:04:40.306Z,9.03
2022-12-04T13:07:19.864Z,9.04
2022-12-04T13:09:51.192Z,9.03
2022-12-04T13:12:18.045Z,9.06
2022-12-04T13:14:48.958Z,9.06
2022-12-04T13:17:35.162Z,9.04
2022-12-04T13:20:08.228Z,9.09
2022-12-04T13:22:39.618Z,9.06
2022-12-04T13:25:24.855Z,9.03
2022-12-04T13:28:10.681Z,8.97
2022-12-04T13:30:42.331Z,8.91
2022-12-04T13:33:27.621Z,8.90
2022-12-04T13:36:08.066Z,8.87
2022-12-04T13:38:38.727Z,8.84
2022-12-04T13:41:25.455Z,8.83
2022-12-04T13:43:52.412Z,8.81
2022-12-04T13:46:37.162Z,8.79
2022-12-04T13:49:13.613Z,8.68
2022-12-04T13:51:41.166Z,8.63
2022-12-04T13:54:10.707Z,8.57
2022-12-04T13:56:37.248Z,8.49
2022-12-04T13:59:04.585Z,8.39
2022-12-04T14:01:36.209Z,8.34
2022-12-04T14:04:02.767Z,8.28
2022-12-04T14:06:32.245Z,8.23
2022-12-04T14:08:59.339Z,8.15
2022-12-04T14:11:25.926Z,8.11
2022-12-04T14:13:53.191Z,8.02
2022-12-04T14:16:22.909Z,7.95
2022-12-04T14:18:50.077Z,7.83
2022-12-04T14:21:16.689Z,7.72
2022-12-04T14:23:43.205Z,7.58
2022-12-04T14:26:19.204Z,7.46
2022-12-04T14:28:45.709Z,7.34
2022-12-04T14:31:15.300Z,7.20
2022-12-04T14:33:45.879Z,7.06
2022-12-04T14:36:18.015Z,6.93
2022-12-04T14:38:45.422Z,6.80
2022-12-04T14:41:11.878Z,6.76
2022-12-04T14:43:39.532Z,6.64
2022-12-04T14:46:22.348Z,6.56
2022-12-04T14:48:53.239Z,6.56
2022-12-04T14:51:38.424Z,6.57
2022-12-04T14:54:37.335Z,6.59
2022-12-04T14:57:12.063Z,6.57
2022-12-04T14:59:48.502Z,6.53
2022-12-04T15:02:18.918Z,6.50
2022-12-04T15:04:46.471Z,6.41
2022-12-04T15:07:23.662Z,6.37
2022-12-04T15:10:09.477Z,6.35
2022-12-04T15:12:39.452Z,6.27
2022-12-04T15:15:17.631Z,6.18
2022-12-04T15:17:44.195Z,6.10
2022-12-04T15:20:11.555Z,6.02
2022-12-04T15:22:38.047Z,5.92
2022-12-04T15:25:06.228Z,5.83
2022-12-04T15:27:33.146Z,5.68
2022-12-04T15:29:59.689Z,5.59
2022-12-04T15:32:26.176Z,5.48
2022-12-04T15:34:58.566Z,5.45
2022-12-04T15:37:29.094Z,5.37
2022-12-04T15:39:55.962Z,5.33
2022-12-04T15:42:22.656Z,5.29
2022-12-04T15:45:21.131Z,5.22
2022-12-04T15:47:47.576Z,5.04
2022-12-04T15:50:17.142Z,4.96
2022-12-04T15:52:58.539Z,4.90
2022-12-04T15:55:25.238Z,4.85
2022-12-04T15:57:57.222Z,4.86
2022-12-04T16:00:23.914Z,4.88
2022-12-04T16:02:50.386Z,4.85
2022-12-04T16:05:26.114Z,4.85
2022-12-04T16:07:53.413Z,4.77
2022-12-04T16:10:23.674Z,4.74
2022-12-04T16:12:53.990Z,4.70
2022-12-04T16:15:20.619Z,4.70
2022-12-04T16:17:47.087Z,4.70
2022-12-04T16:20:13.578Z,4.71
2022-12-04T16:22:40.348Z,4.73
2022-12-04T16:25:07.273Z,4.76
2022-12-04T16:27:33.792Z,4.76
2022-12-04T16:30:00.271Z,4.80
2022-12-04T16:32:31.104Z,4.83
2022-12-04T16:34:57.829Z,4.84
2022-12-04T16:37:26.764Z,4.88
2022-12-04T16:39:53.204Z,4.86
2022-12-04T16:42:22.779Z,4.83
2022-12-04T16:44:49.245Z,4.82
2022-12-04T16:47:15.827Z,4.81
2022-12-04T16:49:42.306Z,4.78
2022-12-04T16:52:09.705Z,4.70
2022-12-04T16:54:36.173Z,4.59
2022-12-04T16:57:02.632Z,4.57
2022-12-04T16:59:29.129Z,4.48
2022-12-04T17:01:55.781Z,4.42
2022-12-04T17:04:22.372Z,4.41
2022-12-04T17:06:48.869Z,4.35
2022-12-04T17:09:15.551Z,4.33
2022-12-04T17:11:42.111Z,4.31
2022-12-04T17:14:08.620Z,4.35
2022-12-04T17:16:35.832Z,4.40
2022-12-04T17:19:02.457Z,4.35
2022-12-04T17:21:28.881Z,4.29
2022-12-04T17:23:55.310Z,4.27
2022-12-04T17:26:21.777Z,4.25
2022-12-04T17:28:51.355Z,4.25
2022-12-04T17:31:18.920Z,4.23
2022-12-04T17:33:45.530Z,4.24
2022-12-04T17:36:12.811Z,4.24
2022-12-04T17:38:40.854Z,4.21
2022-12-04T17:41:07.679Z,4.22
2022-12-04T17:43:34.067Z,4.24
2022-12-04T17:46:00.839Z,4.26
2022-12-04T17:48:27.657Z,4.30
2022-12-04T17:51:23.425Z,4.31
2022-12-04T17:53:49.970Z,4.30
2022-12-04T17:56:17.451Z,4.20
2022-12-04T17:58:49.116Z,4.14
2022-12-04T18:01:24.042Z,4.13
2022-12-04T18:03:57.590Z,4.14
2022-12-04T18:06:28.763Z,4.12
2022-12-04T18:08:55.359Z,4.10
2022-12-04T18:11:22.367Z,4.08
2022-12-04T18:13:49.265Z,3.29
2022-12-04T18:16:15.755Z,4.10
2022-12-04T18:18:42.635Z,4.13
2022-12-04T18:21:09.948Z,4.15
2022-12-04T18:23:44.427Z,4.16
2022-12-04T18:26:17.901Z,4.18
2022-12-04T18:28:44.946Z,4.20
2022-12-04T18:31:11.495Z,4.20
2022-12-04T18:33:38.586Z,4.20
2022-12-04T18:36:05.238Z,4.15
2022-12-04T18:38:32.170Z,4.17
2022-12-04T18:41:02.399Z,4.14
2022-12-04T18:43:28.830Z,4.13
2022-12-04T18:46:07.141Z,4.15
2022-12-04T18:48:34.286Z,4.17
2022-12-04T18:51:00.748Z,4.16
2022-12-04T18:53:27.232Z,4.16
2022-12-04T18:55:53.978Z,4.13
2022-12-04T18:58:21.593Z,4.12
2022-12-04T19:00:48.108Z,4.15
2022-12-04T19:03:14.556Z,4.13
2022-12-04T19:05:47.963Z,4.16
2022-12-04T19:08:14.457Z,4.17
2022-12-04T19:10:40.897Z,4.18
2022-12-04T19:13:07.327Z,4.24
2022-12-04T19:15:34.653Z,4.28
2022-12-04T19:18:01.268Z,4.31
2022-12-04T19:20:27.907Z,4.34
2022-12-04T19:22:54.333Z,4.32
2022-12-04T19:25:20.790Z,4.33
2022-12-04T19:27:47.517Z,4.35
2022-12-04T19:30:14.204Z,4.39
2022-12-04T19:32:40.691Z,4.50
2022-12-04T19:35:07.272Z,4.62
2022-12-04T19:37:37.001Z,4.81
2022-12-04T19:40:07.958Z,4.92
2022-12-04T19:42:34.393Z,5.01
2022-12-04T19:45:00.795Z,5.09
2022-12-04T19:47:27.279Z,5.13
2022-12-04T19:49:53.763Z,5.17
2022-12-04T19:52:20.236Z,5.19
2022-12-04T19:54:46.951Z,5.23
2022-12-04T19:57:14.738Z,5.27
2022-12-04T19:59:45.995Z,5.32
2022-12-04T20:02:13.427Z,5.33
2022-12-04T20:04:39.935Z,5.36
2022-12-04T20:07:06.370Z,5.31
2022-12-04T20:09:32.986Z,5.28
2022-12-04T20:11:59.543Z,5.29
2022-12-04T20:14:25.976Z,5.32
2022-12-04T20:16:52.497Z,5.29
2022-12-04T20:19:19.066Z,5.31
2022-12-04T20:21:45.882Z,5.29
2022-12-04T20:24:16.275Z,5.26
2022-12-04T20:26:43.911Z,5.28
2022-12-04T20:29:11.342Z,5.25
2022-12-04T20:31:38.467Z,5.27
2022-12-04T20:34:06.283Z,5.28
2022-12-04T20:36:35.542Z,5.29
2022-12-04T20:39:02.036Z,5.33
2022-12-04T20:41:28.935Z,5.39
2022-12-04T20:43:55.445Z,5.42
2022-12-04T20:46:23.500Z,5.44
2022-12-04T20:48:50.301Z,5.43
2022-12-04T20:51:17.477Z,5.44
2022-12-04T20:53:44.120Z,5.42
2022-12-04T20:56:10.581Z,5.45
2022-12-04T20:58:37.128Z,5.46
2022-12-04T21:01:10.695Z,5.41
2022-12-04T21:03:37.356Z,5.29
2022-12-04T21:06:04.005Z,5.16
2022-12-04T21:08:49.429Z,5.02
2022-12-04T21:11:15.812Z,4.90
2022-12-04T21:14:00.793Z,4.80
2022-12-04T21:16:27.489Z,4.74
2022-12-04T21:18:53.905Z,4.71
2022-12-04T21:21:20.356Z,4.72
2022-12-04T21:23:46.976Z,4.72
2022-12-04T21:26:14.435Z,4.71
2022-12-04T21:28:40.926Z,4.66
2022-12-04T21:31:07.400Z,4.68
2022-12-04T21:33:34.185Z,4.67
2022-12-04T21:36:04.545Z,4.64
2022-12-04T21:38:37.334Z,4.59
2022-12-04T21:41:04.026Z,4.55
2022-12-04T21:43:31.467Z,4.49
2022-12-04T21:46:07.496Z,4.46
2022-12-04T21:48:35.600Z,4.48
2022-12-04T21:51:06.348Z,4.42
2022-12-04T21:53:33.002Z,4.42
2022-12-04T21:55:59.673Z,4.42
2022-12-04T21:58:28.450Z,4.37
2022-12-04T22:00:54.865Z,4.32
2022-12-04T22:03:21.531Z,4.32
2022-12-04T22:05:47.992Z,4.35
2022-12-04T22:08:14.630Z,4.44
2022-12-04T22:10:41.812Z,4.64
2022-12-04T22:13:08.251Z,4.80
2022-12-04T22:15:39.360Z,4.89
2022-12-04T22:18:06.393Z,4.97
2022-12-04T22:20:32.847Z,5.02
2022-12-04T22:22:59.447Z,5.07
2022-12-04T22:25:25.875Z,5.06
2022-12-04T22:27:55.313Z,5.03
2022-12-04T22:30:22.040Z,5.03
2022-12-04T22:32:48.530Z,4.99
2022-12-04T22:35:15.056Z,5.00
2022-12-04T22:37:44.504Z,5.08
2022-12-04T22:40:11.610Z,5.10
2022-12-04T22:42:38.075Z,5.15
2022-12-04T22:45:04.769Z,5.18
2022-12-04T22:47:31.564Z,5.26
2022-12-04T22:49:58.121Z,5.33
2022-12-04T22:52:24.690Z,5.42
2022-12-04T22:54:52.014Z,5.41
2022-12-04T22:57:18.643Z,5.47
2022-12-04T22:59:45.453Z,5.54
2022-12-04T23:02:12.191Z,5.57
2022-12-04T23:04:38.704Z,5.64
2022-12-04T23:07:05.214Z,5.66
2022-12-04T23:09:31.653Z,5.71
2022-12-04T23:11:58.081Z,5.74
2022-12-04T23:14:24.671Z,5.79
2022-12-04T23:16:51.164Z,5.88
2022-12-04T23:19:18.110Z,5.96
2022-12-04T23:21:44.562Z,6.09
2022-12-04T23:24:11.064Z,6.14
2022-12-04T23:26:38.362Z,6.22
2022-12-04T23:29:17.860Z,6.32
2022-12-04T23:31:50.200Z,6.35
2022-12-04T23:34:16.820Z,6.35
2022-12-04T23:36:43.246Z,6.44
2022-12-04T23:39:09.675Z,6.46
2022-12-04T23:41:36.091Z,6.45
2022-12-04T23:44:02.708Z,6.43
2022-12-04T23:46:31.363Z,6.41
2022-12-04T23:48:58.392Z,6.39
2022-12-04T23:51:24.937Z,6.30
2022-12-04T23:53:52.205Z,6.19
2022-12-04T23:56:19.698Z,6.11
2022-12-04T23:58:46.614Z,6.04
